sensor_id;sensor_type;location;lat;lon;timestamp;temperature;humidity
19880;DHT22;10102;50.828;4.416;2024-01-16T00:02:28;3.10;99.90
19880;DHT22;10102;50.828;4.416;2024-01-16T00:04:54;3.10;99.90
19880;DHT22;10102;50.828;4.416;2024-01-16T00:09:45;3.10;99.90
19880;DHT22;10102;50.828;4.416;2024-01-16T00:14:38;2.90;99.90
19880;DHT22;10102;50.828;4.416;2024-01-16T00:17:04;2.90;99.90
19880;DHT22;10102;50.828;4.416;2024-01-16T00:19:30;2.60;99.90
19880;DHT22;10102;50.828;4.416;2024-01-16T00:24:22;3.00;99.90
19880;DHT22;10102;50.828;4.416;2024-01-16T00:26:48;3.00;99.90
19880;DHT22;10102;50.828;4.416;2024-01-16T00:29:15;2.90;99.90
19880;DHT22;10102;50.828;4.416;2024-01-16T00:34:07;2.40;99.90
19880;DHT22;10102;50.828;4.416;2024-01-16T00:43:51;2.80;99.90
19880;DHT22;10102;50.828;4.416;2024-01-16T00:46:17;3.00;99.90
19880;DHT22;10102;50.828;4.416;2024-01-16T00:48:42;2.80;99.90
19880;DHT22;10102;50.828;4.416;2024-01-16T00:51:08;2.90;99.90
19880;DHT22;10102;50.828;4.416;2024-01-16T00:53:40;2.90;99.90
19880;DHT22;10102;50.828;4.416;2024-01-16T00:56:05;2.80;99.90
19880;DHT22;10102;50.828;4.416;2024-01-16T00:58:31;3.00;99.90
19880;DHT22;10102;50.828;4.416;2024-01-16T01:05:49;2.90;99.90
19880;DHT22;10102;50.828;4.416;2024-01-16T01:10:40;2.80;99.90
19880;DHT22;10102;50.828;4.416;2024-01-16T01:13:06;2.80;99.90
19880;DHT22;10102;50.828;4.416;2024-01-16T01:17:58;2.80;99.90
19880;DHT22;10102;50.828;4.416;2024-01-16T01:22:50;2.90;99.90
19880;DHT22;10102;50.828;4.416;2024-01-16T01:30:08;2.50;99.90
19880;DHT22;10102;50.828;4.416;2024-01-16T01:32:37;2.70;99.90
19880;DHT22;10102;50.828;4.416;2024-01-16T01:35:04;2.30;99.90
19880;DHT22;10102;50.828;4.416;2024-01-16T01:39:56;2.60;99.90
19880;DHT22;10102;50.828;4.416;2024-01-16T01:42:23;3.00;99.90
19880;DHT22;10102;50.828;4.416;2024-01-16T01:44:49;2.40;99.90
19880;DHT22;10102;50.828;4.416;2024-01-16T01:47:14;2.50;99.90
19880;DHT22;10102;50.828;4.416;2024-01-16T01:52:07;2.60;99.90
19880;DHT22;10102;50.828;4.416;2024-01-16T01:54:35;2.60;99.90
19880;DHT22;10102;50.828;4.416;2024-01-16T01:57:02;2.90;99.90
19880;DHT22;10102;50.828;4.416;2024-01-16T01:59:29;2.20;99.90
19880;DHT22;10102;50.828;4.416;2024-01-16T02:01:56;2.30;99.90
19880;DHT22;10102;50.828;4.416;2024-01-16T02:04:22;2.30;99.90
19880;DHT22;10102;50.828;4.416;2024-01-16T02:06:49;2.20;99.90
19880;DHT22;10102;50.828;4.416;2024-01-16T02:11:42;2.40;99.90
19880;DHT22;10102;50.828;4.416;2024-01-16T02:14:08;2.30;99.90
19880;DHT22;10102;50.828;4.416;2024-01-16T02:16:41;2.00;99.90
19880;DHT22;10102;50.828;4.416;2024-01-16T02:19:08;2.50;99.90
19880;DHT22;10102;50.828;4.416;2024-01-16T02:21:46;2.50;99.90
19880;DHT22;10102;50.828;4.416;2024-01-16T02:26:39;2.50;99.90
19880;DHT22;10102;50.828;4.416;2024-01-16T02:29:05;2.40;99.90
19880;DHT22;10102;50.828;4.416;2024-01-16T02:31:31;2.50;99.90
19880;DHT22;10102;50.828;4.416;2024-01-16T02:33:57;2.50;99.90
19880;DHT22;10102;50.828;4.416;2024-01-16T02:36:24;2.50;99.90
19880;DHT22;10102;50.828;4.416;2024-01-16T02:41:16;2.60;99.90
19880;DHT22;10102;50.828;4.416;2024-01-16T02:43:43;2.40;99.90
19880;DHT22;10102;50.828;4.416;2024-01-16T02:46:09;2.50;99.90
19880;DHT22;10102;50.828;4.416;2024-01-16T02:48:35;2.30;99.90
19880;DHT22;10102;50.828;4.416;2024-01-16T02:51:01;2.30;99.90
19880;DHT22;10102;50.828;4.416;2024-01-16T02:55:54;2.30;99.90
19880;DHT22;10102;50.828;4.416;2024-01-16T02:58:20;2.20;99.90
19880;DHT22;10102;50.828;4.416;2024-01-16T03:00:47;2.50;99.90
19880;DHT22;10102;50.828;4.416;2024-01-16T03:03:13;2.20;99.90
19880;DHT22;10102;50.828;4.416;2024-01-16T03:05:40;2.50;99.90
19880;DHT22;10102;50.828;4.416;2024-01-16T03:15:23;2.40;99.90
19880;DHT22;10102;50.828;4.416;2024-01-16T03:17:50;2.30;99.90
19880;DHT22;10102;50.828;4.416;2024-01-16T03:20:17;2.30;99.90
19880;DHT22;10102;50.828;4.416;2024-01-16T03:22:43;2.00;99.90
19880;DHT22;10102;50.828;4.416;2024-01-16T03:25:10;2.40;99.90
19880;DHT22;10102;50.828;4.416;2024-01-16T03:27:37;2.40;99.90
19880;DHT22;10102;50.828;4.416;2024-01-16T03:30:03;2.30;99.90
19880;DHT22;10102;50.828;4.416;2024-01-16T03:37:21;2.10;99.90
19880;DHT22;10102;50.828;4.416;2024-01-16T03:39:47;2.50;99.90
19880;DHT22;10102;50.828;4.416;2024-01-16T03:42:13;2.50;99.90
19880;DHT22;10102;50.828;4.416;2024-01-16T03:44:39;2.00;99.90
19880;DHT22;10102;50.828;4.416;2024-01-16T03:47:06;2.40;99.90
19880;DHT22;10102;50.828;4.416;2024-01-16T03:49:32;2.30;99.90
19880;DHT22;10102;50.828;4.416;2024-01-16T03:54:23;2.80;99.90
19880;DHT22;10102;50.828;4.416;2024-01-16T03:59:15;2.50;99.90
19880;DHT22;10102;50.828;4.416;2024-01-16T04:04:08;2.40;99.90
19880;DHT22;10102;50.828;4.416;2024-01-16T04:09:00;2.30;99.90
19880;DHT22;10102;50.828;4.416;2024-01-16T04:11:26;2.30;99.90
19880;DHT22;10102;50.828;4.416;2024-01-16T04:13:51;2.30;99.90
19880;DHT22;10102;50.828;4.416;2024-01-16T04:18:43;2.30;99.90
19880;DHT22;10102;50.828;4.416;2024-01-16T04:26:02;2.00;99.90
19880;DHT22;10102;50.828;4.416;2024-01-16T04:33:20;2.10;99.90
19880;DHT22;10102;50.828;4.416;2024-01-16T04:35:46;2.00;99.90
19880;DHT22;10102;50.828;4.416;2024-01-16T04:38:11;1.90;99.90
19880;DHT22;10102;50.828;4.416;2024-01-16T04:40:37;2.00;99.90
19880;DHT22;10102;50.828;4.416;2024-01-16T04:43:03;1.90;99.90
19880;DHT22;10102;50.828;4.416;2024-01-16T04:45:28;2.00;99.90
19880;DHT22;10102;50.828;4.416;2024-01-16T04:50:20;1.90;99.90
19880;DHT22;10102;50.828;4.416;2024-01-16T04:55:12;2.00;99.90
19880;DHT22;10102;50.828;4.416;2024-01-16T05:00:04;2.10;99.90
19880;DHT22;10102;50.828;4.416;2024-01-16T05:02:33;2.10;99.90
19880;DHT22;10102;50.828;4.416;2024-01-16T05:04:59;2.10;99.90
19880;DHT22;10102;50.828;4.416;2024-01-16T05:07:25;2.30;99.90
19880;DHT22;10102;50.828;4.416;2024-01-16T05:09:52;1.90;99.90
19880;DHT22;10102;50.828;4.416;2024-01-16T05:12:18;1.80;99.90
19880;DHT22;10102;50.828;4.416;2024-01-16T05:17:09;1.90;99.90
19880;DHT22;10102;50.828;4.416;2024-01-16T05:19:35;1.90;99.90
19880;DHT22;10102;50.828;4.416;2024-01-16T05:22:00;1.30;99.90
19880;DHT22;10102;50.828;4.416;2024-01-16T05:26:52;1.90;99.90
19880;DHT22;10102;50.828;4.416;2024-01-16T05:29:21;1.80;99.90
19880;DHT22;10102;50.828;4.416;2024-01-16T05:31:46;1.90;99.90
19880;DHT22;10102;50.828;4.416;2024-01-16T05:34:12;2.00;99.90
19880;DHT22;10102;50.828;4.416;2024-01-16T05:36:38;2.00;99.90
19880;DHT22;10102;50.828;4.416;2024-01-16T05:39:03;1.90;99.90
19880;DHT22;10102;50.828;4.416;2024-01-16T05:41:33;1.80;99.90
19880;DHT22;10102;50.828;4.416;2024-01-16T05:43:59;1.60;99.90
19880;DHT22;10102;50.828;4.416;2024-01-16T05:48:51;1.50;99.90
19880;DHT22;10102;50.828;4.416;2024-01-16T05:53:42;1.50;99.90
19880;DHT22;10102;50.828;4.416;2024-01-16T05:56:09;2.10;99.90
19880;DHT22;10102;50.828;4.416;2024-01-16T05:58:34;1.60;99.90
19880;DHT22;10102;50.828;4.416;2024-01-16T06:01:04;1.60;99.90
19880;DHT22;10102;50.828;4.416;2024-01-16T06:03:31;1.60;99.90
19880;DHT22;10102;50.828;4.416;2024-01-16T06:05:56;1.60;99.90
19880;DHT22;10102;50.828;4.416;2024-01-16T06:08:22;1.60;99.90
19880;DHT22;10102;50.828;4.416;2024-01-16T06:13:14;1.60;99.90
19880;DHT22;10102;50.828;4.416;2024-01-16T06:18:05;1.80;99.90
19880;DHT22;10102;50.828;4.416;2024-01-16T06:25:24;1.80;99.90
19880;DHT22;10102;50.828;4.416;2024-01-16T06:27:50;2.00;99.90
19880;DHT22;10102;50.828;4.416;2024-01-16T06:32:41;2.00;99.90
19880;DHT22;10102;50.828;4.416;2024-01-16T06:35:07;2.00;99.90
19880;DHT22;10102;50.828;4.416;2024-01-16T06:40:00;2.00;99.90
19880;DHT22;10102;50.828;4.416;2024-01-16T06:42:26;2.00;99.90
19880;DHT22;10102;50.828;4.416;2024-01-16T06:47:18;1.80;99.90
19880;DHT22;10102;50.828;4.416;2024-01-16T06:52:09;1.70;99.90
19880;DHT22;10102;50.828;4.416;2024-01-16T06:54:35;1.70;99.90
19880;DHT22;10102;50.828;4.416;2024-01-16T06:57:01;1.70;99.90
19880;DHT22;10102;50.828;4.416;2024-01-16T07:04:20;1.60;99.90
19880;DHT22;10102;50.828;4.416;2024-01-16T07:06:46;1.80;99.90
19880;DHT22;10102;50.828;4.416;2024-01-16T07:09:13;1.70;99.90
19880;DHT22;10102;50.828;4.416;2024-01-16T07:11:39;1.80;99.90
19880;DHT22;10102;50.828;4.416;2024-01-16T07:14:08;1.80;99.90
19880;DHT22;10102;50.828;4.416;2024-01-16T07:16:34;1.60;99.90
19880;DHT22;10102;50.828;4.416;2024-01-16T07:19:01;1.60;99.90
19880;DHT22;10102;50.828;4.416;2024-01-16T07:21:31;1.50;99.90
19880;DHT22;10102;50.828;4.416;2024-01-16T07:24:00;1.50;99.90
19880;DHT22;10102;50.828;4.416;2024-01-16T07:26:29;1.10;99.90
19880;DHT22;10102;50.828;4.416;2024-01-16T07:28:55;1.40;99.90
19880;DHT22;10102;50.828;4.416;2024-01-16T07:31:23;1.40;99.90
19880;DHT22;10102;50.828;4.416;2024-01-16T07:33:51;1.40;99.90
19880;DHT22;10102;50.828;4.416;2024-01-16T07:36:16;0.70;99.90
19880;DHT22;10102;50.828;4.416;2024-01-16T07:41:08;1.40;99.90
19880;DHT22;10102;50.828;4.416;2024-01-16T07:46:02;1.60;99.90
19880;DHT22;10102;50.828;4.416;2024-01-16T07:48:29;1.50;99.90
19880;DHT22;10102;50.828;4.416;2024-01-16T07:50:56;1.30;99.90
19880;DHT22;10102;50.828;4.416;2024-01-16T07:55:52;1.40;99.90
19880;DHT22;10102;50.828;4.416;2024-01-16T07:58:18;1.40;99.90
19880;DHT22;10102;50.828;4.416;2024-01-16T08:00:43;1.50;99.90
19880;DHT22;10102;50.828;4.416;2024-01-16T08:05:37;1.50;99.90
19880;DHT22;10102;50.828;4.416;2024-01-16T08:08:05;2.00;99.90
19880;DHT22;10102;50.828;4.416;2024-01-16T08:10:31;1.60;99.90
19880;DHT22;10102;50.828;4.416;2024-01-16T08:15:22;2.20;99.90
19880;DHT22;10102;50.828;4.416;2024-01-16T08:20:16;1.90;99.90
19880;DHT22;10102;50.828;4.416;2024-01-16T08:22:42;2.10;99.90
19880;DHT22;10102;50.828;4.416;2024-01-16T08:27:34;1.90;99.90
19880;DHT22;10102;50.828;4.416;2024-01-16T08:42:13;2.00;99.90
19880;DHT22;10102;50.828;4.416;2024-01-16T08:47:05;2.10;99.90
19880;DHT22;10102;50.828;4.416;2024-01-16T08:49:33;2.10;99.90
19880;DHT22;10102;50.828;4.416;2024-01-16T08:51:59;2.20;99.90
19880;DHT22;10102;50.828;4.416;2024-01-16T08:56:58;1.90;99.90
19880;DHT22;10102;50.828;4.416;2024-01-16T08:59:24;2.10;99.90
19880;DHT22;10102;50.828;4.416;2024-01-16T09:01:50;2.40;99.90
19880;DHT22;10102;50.828;4.416;2024-01-16T09:04:20;2.60;99.90
19880;DHT22;10102;50.828;4.416;2024-01-16T09:06:59;2.70;99.90
19880;DHT22;10102;50.828;4.416;2024-01-16T09:09:27;2.80;99.90
19880;DHT22;10102;50.828;4.416;2024-01-16T09:11:54;2.90;99.90
19880;DHT22;10102;50.828;4.416;2024-01-16T09:14:26;2.90;99.90
19880;DHT22;10102;50.828;4.416;2024-01-16T09:16:52;3.20;99.90
19880;DHT22;10102;50.828;4.416;2024-01-16T09:19:21;2.90;99.90
19880;DHT22;10102;50.828;4.416;2024-01-16T09:21:48;2.90;99.90
19880;DHT22;10102;50.828;4.416;2024-01-16T09:24:15;2.90;99.90
19880;DHT22;10102;50.828;4.416;2024-01-16T09:26:43;2.90;99.90
19880;DHT22;10102;50.828;4.416;2024-01-16T09:29:09;3.00;99.90
19880;DHT22;10102;50.828;4.416;2024-01-16T09:31:35;3.10;99.90
19880;DHT22;10102;50.828;4.416;2024-01-16T09:34:03;3.10;99.90
19880;DHT22;10102;50.828;4.416;2024-01-16T09:38:55;3.10;99.90
19880;DHT22;10102;50.828;4.416;2024-01-16T09:43:56;3.00;99.90
19880;DHT22;10102;50.828;4.416;2024-01-16T09:46:23;3.00;99.90
19880;DHT22;10102;50.828;4.416;2024-01-16T09:48:54;2.90;99.90
19880;DHT22;10102;50.828;4.416;2024-01-16T09:51:21;3.00;99.90
19880;DHT22;10102;50.828;4.416;2024-01-16T09:53:47;2.90;99.90
19880;DHT22;10102;50.828;4.416;2024-01-16T09:56:16;2.60;99.90
19880;DHT22;10102;50.828;4.416;2024-01-16T09:58:43;3.10;99.90
19880;DHT22;10102;50.828;4.416;2024-01-16T10:01:11;2.90;99.90
19880;DHT22;10102;50.828;4.416;2024-01-16T10:06:06;3.10;99.90
19880;DHT22;10102;50.828;4.416;2024-01-16T10:08:32;3.10;99.90
19880;DHT22;10102;50.828;4.416;2024-01-16T10:10:59;3.40;99.90
19880;DHT22;10102;50.828;4.416;2024-01-16T10:13:26;3.80;99.90
19880;DHT22;10102;50.828;4.416;2024-01-16T10:15:53;3.80;99.90
19880;DHT22;10102;50.828;4.416;2024-01-16T10:18:28;3.80;99.90
19880;DHT22;10102;50.828;4.416;2024-01-16T10:20:57;4.10;99.90
19880;DHT22;10102;50.828;4.416;2024-01-16T10:23:31;4.30;99.90
19880;DHT22;10102;50.828;4.416;2024-01-16T10:28:37;4.40;99.90
19880;DHT22;10102;50.828;4.416;2024-01-16T10:31:11;4.10;99.90
19880;DHT22;10102;50.828;4.416;2024-01-16T10:33:38;4.70;99.90
19880;DHT22;10102;50.828;4.416;2024-01-16T10:38:37;6.10;99.90
19880;DHT22;10102;50.828;4.416;2024-01-16T10:41:14;6.90;99.90
19880;DHT22;10102;50.828;4.416;2024-01-16T10:43:41;7.40;99.90
19880;DHT22;10102;50.828;4.416;2024-01-16T10:48:34;9.20;99.90
19880;DHT22;10102;50.828;4.416;2024-01-16T10:51:02;10.90;99.90
19880;DHT22;10102;50.828;4.416;2024-01-16T10:53:33;11.70;99.90
19880;DHT22;10102;50.828;4.416;2024-01-16T10:56:00;11.50;99.90
19880;DHT22;10102;50.828;4.416;2024-01-16T11:00:57;13.30;99.90
19880;DHT22;10102;50.828;4.416;2024-01-16T11:03:38;14.60;99.90
19880;DHT22;10102;50.828;4.416;2024-01-16T11:06:06;15.50;99.90
19880;DHT22;10102;50.828;4.416;2024-01-16T11:08:38;15.50;99.90
19880;DHT22;10102;50.828;4.416;2024-01-16T11:11:04;15.10;99.90
19880;DHT22;10102;50.828;4.416;2024-01-16T11:13:35;15.60;99.90
19880;DHT22;10102;50.828;4.416;2024-01-16T11:16:03;15.50;99.90
19880;DHT22;10102;50.828;4.416;2024-01-16T11:18:34;17.30;99.90
19880;DHT22;10102;50.828;4.416;2024-01-16T11:21:02;17.50;99.90
19880;DHT22;10102;50.828;4.416;2024-01-16T11:23:28;17.00;99.90
19880;DHT22;10102;50.828;4.416;2024-01-16T11:25:54;16.90;99.90
19880;DHT22;10102;50.828;4.416;2024-01-16T11:28:20;17.80;99.60
19880;DHT22;10102;50.828;4.416;2024-01-16T11:30:45;17.80;99.90
19880;DHT22;10102;50.828;4.416;2024-01-16T11:35:57;18.70;99.90
19880;DHT22;10102;50.828;4.416;2024-01-16T11:38:24;19.20;99.90
19880;DHT22;10102;50.828;4.416;2024-01-16T11:40:52;19.00;99.90
19880;DHT22;10102;50.828;4.416;2024-01-16T11:43:35;18.90;99.90
19880;DHT22;10102;50.828;4.416;2024-01-16T11:46:02;18.80;99.90
19880;DHT22;10102;50.828;4.416;2024-01-16T11:48:28;20.10;99.60
19880;DHT22;10102;50.828;4.416;2024-01-16T11:50:54;20.70;97.90
19880;DHT22;10102;50.828;4.416;2024-01-16T11:56:38;20.10;97.00
19880;DHT22;10102;50.828;4.416;2024-01-16T12:01:36;20.80;96.80
19880;DHT22;10102;50.828;4.416;2024-01-16T12:04:05;21.00;87.60
19880;DHT22;10102;50.828;4.416;2024-01-16T12:06:31;19.40;96.30
19880;DHT22;10102;50.828;4.416;2024-01-16T12:09:13;18.30;97.00
19880;DHT22;10102;50.828;4.416;2024-01-16T12:11:43;19.30;96.40
19880;DHT22;10102;50.828;4.416;2024-01-16T12:14:11;19.60;96.10
19880;DHT22;10102;50.828;4.416;2024-01-16T12:16:37;19.90;95.20
19880;DHT22;10102;50.828;4.416;2024-01-16T12:19:07;19.80;95.60
19880;DHT22;10102;50.828;4.416;2024-01-16T12:21:41;19.20;95.50
19880;DHT22;10102;50.828;4.416;2024-01-16T12:24:07;17.90;96.10
19880;DHT22;10102;50.828;4.416;2024-01-16T12:26:35;18.60;96.50
19880;DHT22;10102;50.828;4.416;2024-01-16T12:29:00;19.10;95.70
19880;DHT22;10102;50.828;4.416;2024-01-16T12:31:27;20.00;94.60
19880;DHT22;10102;50.828;4.416;2024-01-16T12:34:07;18.60;94.60
19880;DHT22;10102;50.828;4.416;2024-01-16T12:36:33;18.20;95.50
19880;DHT22;10102;50.828;4.416;2024-01-16T12:41:28;14.30;99.90
19880;DHT22;10102;50.828;4.416;2024-01-16T12:43:56;12.30;99.90
19880;DHT22;10102;50.828;4.416;2024-01-16T12:46:21;11.20;99.90
19880;DHT22;10102;50.828;4.416;2024-01-16T12:48:49;10.30;99.90
19880;DHT22;10102;50.828;4.416;2024-01-16T12:51:20;9.40;99.90
19880;DHT22;10102;50.828;4.416;2024-01-16T12:53:48;8.60;99.90
19880;DHT22;10102;50.828;4.416;2024-01-16T12:56:18;8.20;99.90
19880;DHT22;10102;50.828;4.416;2024-01-16T12:58:45;7.00;99.90
19880;DHT22;10102;50.828;4.416;2024-01-16T13:01:27;6.90;99.90
19880;DHT22;10102;50.828;4.416;2024-01-16T13:03:54;6.90;99.90
19880;DHT22;10102;50.828;4.416;2024-01-16T13:06:22;6.80;99.90
19880;DHT22;10102;50.828;4.416;2024-01-16T13:08:48;7.00;99.90
19880;DHT22;10102;50.828;4.416;2024-01-16T13:11:15;6.90;99.90
19880;DHT22;10102;50.828;4.416;2024-01-16T13:13:48;6.60;99.90
19880;DHT22;10102;50.828;4.416;2024-01-16T13:16:14;6.10;99.90
19880;DHT22;10102;50.828;4.416;2024-01-16T13:21:07;6.00;99.90
19880;DHT22;10102;50.828;4.416;2024-01-16T13:23:33;5.30;99.90
19880;DHT22;10102;50.828;4.416;2024-01-16T13:25:58;5.50;99.90
19880;DHT22;10102;50.828;4.416;2024-01-16T13:28:32;5.00;99.90
19880;DHT22;10102;50.828;4.416;2024-01-16T13:30:58;5.60;99.90
19880;DHT22;10102;50.828;4.416;2024-01-16T13:33:25;5.60;99.90
19880;DHT22;10102;50.828;4.416;2024-01-16T13:35:54;5.70;99.90
19880;DHT22;10102;50.828;4.416;2024-01-16T13:38:20;5.80;99.90
19880;DHT22;10102;50.828;4.416;2024-01-16T13:40:46;5.80;99.90
19880;DHT22;10102;50.828;4.416;2024-01-16T13:45:39;5.50;99.90
19880;DHT22;10102;50.828;4.416;2024-01-16T13:48:05;5.50;99.90
19880;DHT22;10102;50.828;4.416;2024-01-16T13:53:01;5.50;99.90
19880;DHT22;10102;50.828;4.416;2024-01-16T13:55:27;5.50;99.90
19880;DHT22;10102;50.828;4.416;2024-01-16T13:57:53;5.50;99.90
19880;DHT22;10102;50.828;4.416;2024-01-16T14:00:19;5.60;99.90
19880;DHT22;10102;50.828;4.416;2024-01-16T14:02:46;5.60;99.90
19880;DHT22;10102;50.828;4.416;2024-01-16T14:05:17;5.60;99.90
19880;DHT22;10102;50.828;4.416;2024-01-16T14:07:47;5.10;99.90
19880;DHT22;10102;50.828;4.416;2024-01-16T14:10:15;5.40;99.90
19880;DHT22;10102;50.828;4.416;2024-01-16T14:12:47;5.40;99.90
19880;DHT22;10102;50.828;4.416;2024-01-16T14:15:14;5.40;99.90
19880;DHT22;10102;50.828;4.416;2024-01-16T14:17:48;5.20;99.90
19880;DHT22;10102;50.828;4.416;2024-01-16T14:20:15;5.10;99.90
19880;DHT22;10102;50.828;4.416;2024-01-16T14:22:42;5.20;99.90
19880;DHT22;10102;50.828;4.416;2024-01-16T14:25:10;5.20;99.90
19880;DHT22;10102;50.828;4.416;2024-01-16T14:27:43;5.10;99.90
19880;DHT22;10102;50.828;4.416;2024-01-16T14:30:12;5.10;99.90
19880;DHT22;10102;50.828;4.416;2024-01-16T14:32:40;4.90;99.90
19880;DHT22;10102;50.828;4.416;2024-01-16T14:35:06;4.60;99.90
19880;DHT22;10102;50.828;4.416;2024-01-16T14:37:36;4.50;99.90
19880;DHT22;10102;50.828;4.416;2024-01-16T14:40:03;4.60;99.90
19880;DHT22;10102;50.828;4.416;2024-01-16T14:42:46;4.80;99.90
19880;DHT22;10102;50.828;4.416;2024-01-16T14:45:14;4.80;99.90
19880;DHT22;10102;50.828;4.416;2024-01-16T14:47:40;5.10;99.90
19880;DHT22;10102;50.828;4.416;2024-01-16T14:50:09;4.90;99.90
19880;DHT22;10102;50.828;4.416;2024-01-16T14:55:05;4.90;99.90
19880;DHT22;10102;50.828;4.416;2024-01-16T14:57:35;4.90;99.90
19880;DHT22;10102;50.828;4.416;2024-01-16T15:00:11;4.80;99.90
19880;DHT22;10102;50.828;4.416;2024-01-16T15:02:51;4.80;99.90
19880;DHT22;10102;50.828;4.416;2024-01-16T15:07:44;4.90;99.90
19880;DHT22;10102;50.828;4.416;2024-01-16T15:10:10;5.10;99.90
19880;DHT22;10102;50.828;4.416;2024-01-16T15:12:41;4.80;99.90
19880;DHT22;10102;50.828;4.416;2024-01-16T15:15:08;4.90;99.90
19880;DHT22;10102;50.828;4.416;2024-01-16T15:22:29;4.70;99.90
19880;DHT22;10102;50.828;4.416;2024-01-16T15:24:54;4.50;99.90
19880;DHT22;10102;50.828;4.416;2024-01-16T15:29:47;4.60;99.90
19880;DHT22;10102;50.828;4.416;2024-01-16T15:32:13;4.70;99.90
19880;DHT22;10102;50.828;4.416;2024-01-16T15:34:39;4.70;99.90
19880;DHT22;10102;50.828;4.416;2024-01-16T15:37:06;4.60;99.90
19880;DHT22;10102;50.828;4.416;2024-01-16T15:39:31;4.60;99.90
19880;DHT22;10102;50.828;4.416;2024-01-16T15:44:23;4.50;99.90
19880;DHT22;10102;50.828;4.416;2024-01-16T15:47:00;4.70;99.90
19880;DHT22;10102;50.828;4.416;2024-01-16T15:49:27;4.60;99.90
19880;DHT22;10102;50.828;4.416;2024-01-16T15:51:53;4.60;99.90
19880;DHT22;10102;50.828;4.416;2024-01-16T15:54:20;4.60;99.90
19880;DHT22;10102;50.828;4.416;2024-01-16T15:56:46;4.50;99.90
19880;DHT22;10102;50.828;4.416;2024-01-16T16:01:38;4.50;99.90
19880;DHT22;10102;50.828;4.416;2024-01-16T16:04:04;4.40;99.90
19880;DHT22;10102;50.828;4.416;2024-01-16T16:06:34;4.40;99.90
19880;DHT22;10102;50.828;4.416;2024-01-16T16:09:00;4.40;99.90
19880;DHT22;10102;50.828;4.416;2024-01-16T16:13:52;4.30;99.90
19880;DHT22;10102;50.828;4.416;2024-01-16T16:16:18;4.30;99.90
19880;DHT22;10102;50.828;4.416;2024-01-16T16:18:45;4.00;99.90
19880;DHT22;10102;50.828;4.416;2024-01-16T16:21:11;4.20;99.90
19880;DHT22;10102;50.828;4.416;2024-01-16T16:23:37;4.20;99.90
19880;DHT22;10102;50.828;4.416;2024-01-16T16:26:02;4.20;99.90
19880;DHT22;10102;50.828;4.416;2024-01-16T16:28:28;4.10;99.90
19880;DHT22;10102;50.828;4.416;2024-01-16T16:30:54;4.00;99.90
19880;DHT22;10102;50.828;4.416;2024-01-16T16:33:20;4.10;99.90
19880;DHT22;10102;50.828;4.416;2024-01-16T16:35:45;4.50;99.90
19880;DHT22;10102;50.828;4.416;2024-01-16T16:38:11;3.90;99.90
19880;DHT22;10102;50.828;4.416;2024-01-16T16:40:37;3.90;99.90
19880;DHT22;10102;50.828;4.416;2024-01-16T16:43:03;3.70;99.90
19880;DHT22;10102;50.828;4.416;2024-01-16T16:45:30;3.90;99.90
19880;DHT22;10102;50.828;4.416;2024-01-16T16:47:56;3.90;99.90
19880;DHT22;10102;50.828;4.416;2024-01-16T16:50:22;3.90;99.90
19880;DHT22;10102;50.828;4.416;2024-01-16T16:52:49;3.90;99.90
19880;DHT22;10102;50.828;4.416;2024-01-16T16:55:14;3.90;99.90
19880;DHT22;10102;50.828;4.416;2024-01-16T16:57:40;4.10;99.90
19880;DHT22;10102;50.828;4.416;2024-01-16T17:05:00;3.70;99.90
19880;DHT22;10102;50.828;4.416;2024-01-16T17:12:18;3.80;99.90
19880;DHT22;10102;50.828;4.416;2024-01-16T17:14:44;3.80;99.90
19880;DHT22;10102;50.828;4.416;2024-01-16T17:17:10;3.90;99.90
19880;DHT22;10102;50.828;4.416;2024-01-16T17:22:02;3.90;99.90
19880;DHT22;10102;50.828;4.416;2024-01-16T17:24:28;3.90;99.90
19880;DHT22;10102;50.828;4.416;2024-01-16T17:31:46;3.70;99.90
19880;DHT22;10102;50.828;4.416;2024-01-16T17:36:38;3.70;99.90
19880;DHT22;10102;50.828;4.416;2024-01-16T17:39:04;3.60;99.90
19880;DHT22;10102;50.828;4.416;2024-01-16T17:41:36;3.40;99.90
19880;DHT22;10102;50.828;4.416;2024-01-16T17:44:02;3.60;99.90
19880;DHT22;10102;50.828;4.416;2024-01-16T17:46:29;3.50;99.90
19880;DHT22;10102;50.828;4.416;2024-01-16T17:53:48;3.40;99.90
19880;DHT22;10102;50.828;4.416;2024-01-16T17:56:14;3.00;99.90
19880;DHT22;10102;50.828;4.416;2024-01-16T17:58:41;3.30;99.90
19880;DHT22;10102;50.828;4.416;2024-01-16T18:01:08;3.20;99.90
19880;DHT22;10102;50.828;4.416;2024-01-16T18:03:38;3.20;99.90
19880;DHT22;10102;50.828;4.416;2024-01-16T18:06:04;1.70;99.90
19880;DHT22;10102;50.828;4.416;2024-01-16T18:08:35;3.20;99.90
19880;DHT22;10102;50.828;4.416;2024-01-16T18:11:04;3.30;99.90
19880;DHT22;10102;50.828;4.416;2024-01-16T18:13:30;3.30;99.90
19880;DHT22;10102;50.828;4.416;2024-01-16T18:15:58;3.20;99.90
19880;DHT22;10102;50.828;4.416;2024-01-16T18:18:23;3.10;99.90
19880;DHT22;10102;50.828;4.416;2024-01-16T18:23:16;3.10;99.90
19880;DHT22;10102;50.828;4.416;2024-01-16T18:28:09;3.10;99.90
19880;DHT22;10102;50.828;4.416;2024-01-16T18:33:00;3.10;99.90
19880;DHT22;10102;50.828;4.416;2024-01-16T18:37:52;3.10;99.90
19880;DHT22;10102;50.828;4.416;2024-01-16T18:40:18;3.00;99.90
19880;DHT22;10102;50.828;4.416;2024-01-16T18:42:46;2.90;99.90
19880;DHT22;10102;50.828;4.416;2024-01-16T18:45:12;3.30;99.90
19880;DHT22;10102;50.828;4.416;2024-01-16T18:47:39;2.80;99.90
19880;DHT22;10102;50.828;4.416;2024-01-16T18:50:06;2.90;99.90
19880;DHT22;10102;50.828;4.416;2024-01-16T18:52:36;2.80;99.90
19880;DHT22;10102;50.828;4.416;2024-01-16T18:55:05;2.70;99.90
19880;DHT22;10102;50.828;4.416;2024-01-16T18:57:36;2.70;99.90
19880;DHT22;10102;50.828;4.416;2024-01-16T19:00:05;2.70;99.90
19880;DHT22;10102;50.828;4.416;2024-01-16T19:02:31;2.80;99.90
19880;DHT22;10102;50.828;4.416;2024-01-16T19:04:57;2.70;99.90
19880;DHT22;10102;50.828;4.416;2024-01-16T19:07:23;2.70;99.90
19880;DHT22;10102;50.828;4.416;2024-01-16T19:12:15;2.60;99.90
19880;DHT22;10102;50.828;4.416;2024-01-16T19:14:42;2.60;99.90
19880;DHT22;10102;50.828;4.416;2024-01-16T19:17:10;2.60;99.90
19880;DHT22;10102;50.828;4.416;2024-01-16T19:22:02;2.80;99.90
19880;DHT22;10102;50.828;4.416;2024-01-16T19:24:29;2.80;99.90
19880;DHT22;10102;50.828;4.416;2024-01-16T19:26:54;2.60;99.90
19880;DHT22;10102;50.828;4.416;2024-01-16T19:29:20;2.60;99.90
19880;DHT22;10102;50.828;4.416;2024-01-16T19:31:47;2.60;99.90
19880;DHT22;10102;50.828;4.416;2024-01-16T19:36:39;2.60;99.90
19880;DHT22;10102;50.828;4.416;2024-01-16T19:39:08;2.50;99.90
19880;DHT22;10102;50.828;4.416;2024-01-16T19:41:40;2.30;99.90
19880;DHT22;10102;50.828;4.416;2024-01-16T19:44:08;2.50;99.90
19880;DHT22;10102;50.828;4.416;2024-01-16T19:46:41;2.40;99.90
19880;DHT22;10102;50.828;4.416;2024-01-16T19:49:07;2.40;99.90
19880;DHT22;10102;50.828;4.416;2024-01-16T19:51:42;2.40;99.90
19880;DHT22;10102;50.828;4.416;2024-01-16T19:54:08;2.40;99.90
19880;DHT22;10102;50.828;4.416;2024-01-16T19:56:34;2.40;99.90
19880;DHT22;10102;50.828;4.416;2024-01-16T19:59:00;2.40;99.90
19880;DHT22;10102;50.828;4.416;2024-01-16T20:01:29;2.30;99.90